Time;durP1;ratioP1;P1;durP2;ratioP2;P2;SDS_P1;SDS_P2;PMS_P1;PMS_P2;Temp;Humidity;BMP_temperature;BMP_pressure;BME280_temperature;BME280_humidity;BME280_pressure;Samples;Min_cycle;Max_cycle;Signal;HPM_P1;HPM_P2
2022/03/02 00:01:34;;;;;;;14.50;12.73;;;;;;;;;;5062522;28;24991;-52
2022/03/02 00:03:59;;;;;;;15.10;13.50;;;;;;;;;;5073359;28;24422;-49
2022/03/02 00:06:24;;;;;;;14.40;12.90;;;;;;;;;;5064095;28;25059;-50
2022/03/02 00:08:50;;;;;;;14.97;12.63;;;;;;;;;;5072034;28;24993;-56
2022/03/02 00:11:16;;;;;;;13.90;12.35;;;;;;;;;;5064914;28;24492;-49
2022/03/02 00:13:41;;;;;;;14.18;12.38;;;;;;;;;;5064835;28;24423;-50
2022/03/02 00:16:08;;;;;;;13.10;11.70;;;;;;;;;;5066298;28;24421;-49
2022/03/02 00:18:33;;;;;;;14.77;12.10;;;;;;;;;;5063983;28;25165;-50
2022/03/02 00:20:58;;;;;;;13.50;11.70;;;;;;;;;;5062310;28;24422;-49
2022/03/02 00:23:23;;;;;;;12.60;11.07;;;;;;;;;;5063166;28;24818;-50
2022/03/02 00:25:48;;;;;;;14.10;12.00;;;;;;;;;;5065317;28;24410;-50
2022/03/02 00:28:14;;;;;;;14.68;12.20;;;;;;;;;;5061592;28;24425;-50
2022/03/02 00:30:40;;;;;;;14.88;11.45;;;;;;;;;;5063746;28;25319;-49
2022/03/02 00:33:05;;;;;;;11.43;10.13;;;;;;;;;;5065892;28;24990;-50
2022/03/02 00:35:30;;;;;;;12.97;11.07;;;;;;;;;;5069522;28;24437;-50
2022/03/02 00:37:55;;;;;;;14.63;10.87;;;;;;;;;;5063729;28;24944;-50
2022/03/02 00:40:21;;;;;;;14.40;11.70;;;;;;;;;;5063505;28;24796;-49
2022/03/02 00:42:47;;;;;;;12.07;10.68;;;;;;;;;;5061052;28;24411;-49
2022/03/02 00:45:12;;;;;;;12.87;10.30;;;;;;;;;;5064690;28;24414;-49
2022/03/02 00:47:37;;;;;;;13.50;10.70;;;;;;;;;;5063342;28;24454;-49
2022/03/02 00:50:03;;;;;;;13.48;10.60;;;;;;;;;;5065788;28;24561;-49
2022/03/02 00:52:28;;;;;;;13.18;10.90;;;;;;;;;;5064950;28;24438;-49
2022/03/02 00:54:55;;;;;;;13.30;10.63;;;;;;;;;;5063029;28;24447;-49
2022/03/02 00:57:20;;;;;;;12.70;11.10;;;;;;;;;;5066963;28;24560;-50
2022/03/02 00:59:45;;;;;;;15.07;11.27;;;;;;;;;;5062918;28;25075;-50
2022/03/02 01:02:10;;;;;;;12.45;10.90;;;;;;;;;;5064172;28;24407;-50
2022/03/02 01:04:35;;;;;;;15.38;11.52;;;;;;;;;;5064558;28;24477;-50
2022/03/02 01:07:00;;;;;;;14.60;11.30;;;;;;;;;;5063819;28;24817;-50
2022/03/02 01:09:26;;;;;;;14.17;11.40;;;;;;;;;;5067621;28;24844;-50
2022/03/02 01:11:51;;;;;;;14.87;11.33;;;;;;;;;;5066356;28;24525;-49
2022/03/02 01:14:16;;;;;;;13.70;11.47;;;;;;;;;;5063597;28;24411;-50
2022/03/02 01:16:41;;;;;;;13.00;11.00;;;;;;;;;;5062811;28;24517;-51
2022/03/02 01:19:07;;;;;;;12.53;11.10;;;;;;;;;;5062394;28;24439;-50
2022/03/02 01:21:32;;;;;;;13.87;11.60;;;;;;;;;;5063622;28;24518;-51
2022/03/02 01:23:59;;;;;;;12.60;11.17;;;;;;;;;;5067503;28;24472;-50
2022/03/02 01:26:29;;;;;;;13.05;11.75;;;;;;;;;;5066487;28;24435;-50
2022/03/02 01:28:54;;;;;;;14.75;12.82;;;;;;;;;;5066928;28;24992;-50
2022/03/02 01:31:21;;;;;;;16.40;12.90;;;;;;;;;;5070651;28;24438;-50
2022/03/02 01:33:46;;;;;;;14.95;11.85;;;;;;;;;;5066443;28;24423;-50
2022/03/02 01:36:11;;;;;;;16.13;12.80;;;;;;;;;;5066573;28;24484;-49
2022/03/02 01:38:37;;;;;;;13.53;12.07;;;;;;;;;;5066752;28;25044;-50
2022/03/02 01:41:02;;;;;;;17.07;13.00;;;;;;;;;;5066274;28;24520;-50
2022/03/02 01:43:28;;;;;;;15.87;11.70;;;;;;;;;;5069128;28;24417;-51
2022/03/02 01:45:53;;;;;;;16.80;12.98;;;;;;;;;;5064171;28;24829;-50
2022/03/02 01:48:18;;;;;;;13.40;12.00;;;;;;;;;;5065915;28;24403;-50
2022/03/02 01:50:43;;;;;;;14.90;12.43;;;;;;;;;;5066719;28;24515;-50
2022/03/02 01:53:09;;;;;;;15.00;12.68;;;;;;;;;;5067435;28;24438;-50
2022/03/02 01:55:34;;;;;;;14.32;12.15;;;;;;;;;;5060045;28;25063;-50
2022/03/02 01:57:59;;;;;;;14.30;11.70;;;;;;;;;;5061141;28;24438;-50
2022/03/02 02:00:25;;;;;;;14.40;12.17;;;;;;;;;;5064902;28;24492;-50
2022/03/02 02:02:50;;;;;;;13.80;11.60;;;;;;;;;;5064775;28;24964;-50
2022/03/02 02:05:15;;;;;;;14.82;12.27;;;;;;;;;;5061845;28;24430;-50
2022/03/02 02:07:41;;;;;;;13.57;12.13;;;;;;;;;;5076953;28;24460;-50
2022/03/02 02:10:07;;;;;;;13.93;11.70;;;;;;;;;;5062158;28;24485;-49
2022/03/02 02:12:33;;;;;;;14.60;12.60;;;;;;;;;;5064936;28;24410;-50
2022/03/02 02:14:59;;;;;;;15.07;12.60;;;;;;;;;;5064009;28;24518;-50
2022/03/02 02:17:24;;;;;;;14.90;12.15;;;;;;;;;;5068257;28;24528;-50
2022/03/02 02:19:49;;;;;;;15.10;11.68;;;;;;;;;;5066028;28;24437;-49
2022/03/02 02:22:14;;;;;;;16.80;12.90;;;;;;;;;;5070078;28;24475;-50
2022/03/02 02:24:40;;;;;;;14.10;12.55;;;;;;;;;;5065162;28;24982;-50
2022/03/02 02:27:05;;;;;;;15.82;12.60;;;;;;;;;;5066852;28;24415;-50
2022/03/02 02:29:32;;;;;;;14.33;12.33;;;;;;;;;;5064035;28;24430;-50
2022/03/02 02:31:57;;;;;;;15.90;12.60;;;;;;;;;;5065508;28;24433;-50
2022/03/02 02:34:23;;;;;;;15.10;12.93;;;;;;;;;;5069558;28;24427;-50
2022/03/02 02:36:49;;;;;;;13.70;12.13;;;;;;;;;;5058213;28;24514;-50
2022/03/02 02:39:14;;;;;;;13.75;12.25;;;;;;;;;;5066259;28;24888;-50
2022/03/02 02:41:40;;;;;;;17.15;13.57;;;;;;;;;;5066181;28;25071;-50
2022/03/02 02:44:05;;;;;;;15.07;12.63;;;;;;;;;;5060866;28;24533;-50
2022/03/02 02:46:30;;;;;;;13.83;12.17;;;;;;;;;;5064343;28;24427;-50
2022/03/02 02:48:55;;;;;;;14.53;12.87;;;;;;;;;;5062105;28;25000;-49
2022/03/02 02:51:21;;;;;;;15.33;12.33;;;;;;;;;;5060699;28;24428;-50
2022/03/02 02:53:46;;;;;;;13.90;11.60;;;;;;;;;;5064421;28;25023;-50
2022/03/02 02:56:11;;;;;;;15.73;13.40;;;;;;;;;;5071059;28;24990;-49
2022/03/02 02:58:36;;;;;;;15.63;12.73;;;;;;;;;;5062785;28;24526;-50
2022/03/02 03:01:02;;;;;;;14.82;12.48;;;;;;;;;;5061447;28;24966;-50
2022/03/02 03:03:27;;;;;;;14.20;11.33;;;;;;;;;;5064627;28;24437;-50
2022/03/02 03:05:52;;;;;;;17.60;12.80;;;;;;;;;;5065377;28;24426;-50
2022/03/02 03:08:18;;;;;;;14.33;12.00;;;;;;;;;;5064753;28;24879;-49
2022/03/02 03:10:45;;;;;;;13.67;12.30;;;;;;;;;;5064164;28;24500;-51
2022/03/02 03:13:10;;;;;;;14.80;12.00;;;;;;;;;;5060356;28;24533;-50
2022/03/02 03:15:36;;;;;;;15.50;12.83;;;;;;;;;;5064619;28;24519;-49
2022/03/02 03:18:01;;;;;;;13.70;12.10;;;;;;;;;;5061897;28;24964;-50
2022/03/02 03:20:27;;;;;;;14.45;12.70;;;;;;;;;;5064815;28;24992;-50
2022/03/02 03:22:53;;;;;;;17.23;13.00;;;;;;;;;;5056906;28;24420;-50
2022/03/02 03:25:19;;;;;;;15.52;12.52;;;;;;;;;;5062176;28;24786;-50
2022/03/02 03:27:44;;;;;;;15.48;12.50;;;;;;;;;;5063422;28;24419;-50
2022/03/02 03:30:11;;;;;;;14.48;12.20;;;;;;;;;;5064438;28;24991;-50
2022/03/02 03:32:36;;;;;;;15.43;12.15;;;;;;;;;;5062916;28;24434;-50
2022/03/02 03:35:02;;;;;;;14.87;12.30;;;;;;;;;;5063276;28;24415;-50
2022/03/02 03:37:27;;;;;;;13.30;11.73;;;;;;;;;;5066438;28;24418;-51
2022/03/02 03:39:52;;;;;;;14.53;12.70;;;;;;;;;;5062028;28;24431;-50
2022/03/02 03:42:17;;;;;;;13.50;11.87;;;;;;;;;;5067145;28;24443;-49
2022/03/02 03:44:42;;;;;;;15.40;13.23;;;;;;;;;;5074341;28;24512;-49
2022/03/02 03:47:08;;;;;;;15.18;13.35;;;;;;;;;;5067147;28;25021;-49
2022/03/02 03:49:33;;;;;;;14.30;12.20;;;;;;;;;;5066456;28;24440;-50
2022/03/02 03:51:58;;;;;;;15.37;12.10;;;;;;;;;;5075344;28;24423;-50
2022/03/02 03:54:23;;;;;;;13.53;11.63;;;;;;;;;;5065811;28;24415;-50
2022/03/02 03:56:48;;;;;;;13.00;11.70;;;;;;;;;;5069818;28;24564;-49
2022/03/02 03:59:14;;;;;;;13.73;11.77;;;;;;;;;;5086811;28;24939;-50
2022/03/02 04:01:39;;;;;;;14.30;12.57;;;;;;;;;;5071196;28;24501;-50
2022/03/02 04:04:04;;;;;;;15.02;12.45;;;;;;;;;;5068583;28;24409;-51
2022/03/02 04:06:29;;;;;;;15.57;12.40;;;;;;;;;;5064880;28;25254;-50
2022/03/02 04:08:54;;;;;;;14.40;12.20;;;;;;;;;;5063824;28;24472;-50
2022/03/02 04:11:19;;;;;;;14.20;12.68;;;;;;;;;;5069801;28;24422;-51
2022/03/02 04:13:45;;;;;;;17.10;13.18;;;;;;;;;;5065693;28;24433;-51
2022/03/02 04:16:11;;;;;;;15.95;13.00;;;;;;;;;;5063879;28;24692;-51
2022/03/02 04:18:36;;;;;;;14.93;12.57;;;;;;;;;;5071553;28;24506;-50
2022/03/02 04:21:01;;;;;;;15.68;13.10;;;;;;;;;;5063474;28;24502;-50
2022/03/02 04:23:27;;;;;;;15.43;13.52;;;;;;;;;;5065345;28;24837;-51
2022/03/02 04:25:52;;;;;;;16.02;12.60;;;;;;;;;;5066488;28;24788;-51
2022/03/02 04:28:18;;;;;;;15.53;12.87;;;;;;;;;;5068079;28;24961;-51
2022/03/02 04:30:43;;;;;;;13.33;11.57;;;;;;;;;;5084249;28;24465;-51
2022/03/02 04:33:08;;;;;;;15.80;13.00;;;;;;;;;;5064033;28;25021;-51
2022/03/02 04:35:34;;;;;;;15.60;13.70;;;;;;;;;;5065369;28;24715;-52
2022/03/02 04:37:59;;;;;;;16.73;13.73;;;;;;;;;;5064231;28;24474;-49
2022/03/02 04:40:25;;;;;;;13.97;12.20;;;;;;;;;;5064021;28;25043;-49
2022/03/02 04:42:50;;;;;;;15.10;12.60;;;;;;;;;;5063006;28;24956;-49
2022/03/02 04:45:15;;;;;;;15.43;12.80;;;;;;;;;;5063125;28;24558;-49
2022/03/02 04:47:40;;;;;;;13.97;12.47;;;;;;;;;;5063406;28;25009;-48
2022/03/02 04:50:07;;;;;;;13.83;11.73;;;;;;;;;;5065985;28;24429;-51
2022/03/02 04:52:32;;;;;;;15.35;12.43;;;;;;;;;;5065110;28;24489;-49
2022/03/02 04:55:07;;;;;;;15.88;13.18;;;;;;;;;;5066149;28;24971;-50
2022/03/02 04:57:33;;;;;;;16.95;13.13;;;;;;;;;;5069051;28;24426;-49
2022/03/02 04:59:58;;;;;;;15.80;13.25;;;;;;;;;;5067331;28;24839;-50
2022/03/02 05:02:23;;;;;;;15.52;13.05;;;;;;;;;;5067049;28;24493;-50
2022/03/02 05:04:49;;;;;;;15.77;13.00;;;;;;;;;;5068952;28;24421;-50
2022/03/02 05:07:14;;;;;;;14.50;12.35;;;;;;;;;;5067750;28;24504;-49
2022/03/02 05:09:39;;;;;;;15.20;12.50;;;;;;;;;;5066933;28;24904;-49
2022/03/02 05:12:05;;;;;;;18.70;14.07;;;;;;;;;;5076527;28;24406;-49
2022/03/02 05:14:30;;;;;;;15.35;12.98;;;;;;;;;;5045285;28;24438;-50
2022/03/02 05:16:55;;;;;;;16.30;13.27;;;;;;;;;;5072965;28;24476;-50
2022/03/02 05:19:20;;;;;;;15.77;13.13;;;;;;;;;;5072832;28;24496;-50
2022/03/02 05:21:45;;;;;;;17.00;13.90;;;;;;;;;;5074019;28;24523;-50
2022/03/02 05:24:10;;;;;;;17.07;13.60;;;;;;;;;;5077451;28;25031;-49
2022/03/02 05:26:36;;;;;;;15.35;13.07;;;;;;;;;;5070689;28;24538;-50
2022/03/02 05:29:01;;;;;;;15.50;13.10;;;;;;;;;;5069960;28;24437;-50
2022/03/02 05:31:27;;;;;;;14.55;12.95;;;;;;;;;;5069748;28;24417;-50
2022/03/02 05:33:52;;;;;;;15.23;12.60;;;;;;;;;;5077763;28;24776;-50
2022/03/02 05:36:17;;;;;;;17.90;13.80;;;;;;;;;;5065368;28;24422;-50
2022/03/02 05:38:43;;;;;;;21.83;14.90;;;;;;;;;;5066520;28;24859;-49
2022/03/02 05:41:08;;;;;;;23.60;16.03;;;;;;;;;;5066296;28;24427;-50
2022/03/02 05:43:33;;;;;;;18.95;14.40;;;;;;;;;;5071246;28;24411;-50
2022/03/02 05:45:58;;;;;;;18.37;14.27;;;;;;;;;;5063725;28;24431;-50
2022/03/02 05:48:23;;;;;;;16.43;13.97;;;;;;;;;;5065945;28;24974;-50
2022/03/02 05:50:48;;;;;;;16.02;13.93;;;;;;;;;;5064970;28;24774;-50
2022/03/02 05:53:13;;;;;;;16.50;13.38;;;;;;;;;;5063148;28;24513;-50
2022/03/02 05:55:39;;;;;;;15.75;13.93;;;;;;;;;;5064156;28;25097;-50
2022/03/02 05:58:04;;;;;;;15.07;13.43;;;;;;;;;;5066981;28;24450;-50
2022/03/02 06:00:29;;;;;;;16.23;13.57;;;;;;;;;;5071498;28;24439;-50
2022/03/02 06:02:54;;;;;;;15.57;13.13;;;;;;;;;;5068165;28;24545;-50
2022/03/02 06:05:19;;;;;;;14.45;12.85;;;;;;;;;;5068474;28;24410;-50
2022/03/02 06:07:44;;;;;;;15.80;13.10;;;;;;;;;;5070162;28;24741;-50
2022/03/02 06:10:11;;;;;;;16.57;13.37;;;;;;;;;;5074915;28;24422;-51
2022/03/02 06:12:36;;;;;;;17.93;13.43;;;;;;;;;;5068906;28;24989;-50
2022/03/02 06:15:02;;;;;;;18.90;13.80;;;;;;;;;;5066848;28;24419;-50
2022/03/02 06:17:28;;;;;;;15.00;12.87;;;;;;;;;;5064467;28;25039;-50
2022/03/02 06:19:53;;;;;;;17.50;13.50;;;;;;;;;;5069441;28;24518;-51
2022/03/02 06:22:22;;;;;;;14.87;13.27;;;;;;;;;;5071750;28;24406;-50
2022/03/02 06:24:47;;;;;;;15.10;12.70;;;;;;;;;;5070514;28;24499;-51
2022/03/02 06:27:12;;;;;;;17.90;13.85;;;;;;;;;;5068836;28;24522;-50
2022/03/02 06:29:38;;;;;;;21.80;14.40;;;;;;;;;;5067511;28;25169;-51
2022/03/02 06:32:03;;;;;;;15.57;13.33;;;;;;;;;;5067548;28;24429;-50
2022/03/02 06:34:29;;;;;;;16.20;14.30;;;;;;;;;;5065665;28;24458;-50
2022/03/02 06:36:54;;;;;;;17.33;14.10;;;;;;;;;;5067177;28;24485;-50
2022/03/02 06:39:20;;;;;;;18.23;14.10;;;;;;;;;;5066891;28;24542;-51
2022/03/02 06:41:52;;;;;;;19.10;14.60;;;;;;;;;;5065702;28;24814;-51
2022/03/02 06:44:29;;;;;;;17.13;14.25;;;;;;;;;;5067132;28;24422;-51
2022/03/02 06:47:09;;;;;;;18.00;14.88;;;;;;;;;;5064703;28;21380;-50
2022/03/02 06:49:44;;;;;;;16.65;14.70;;;;;;;;;;5067439;28;24505;-51
2022/03/02 06:52:10;;;;;;;17.90;14.38;;;;;;;;;;5065223;28;24948;-51
2022/03/02 06:54:36;;;;;;;18.80;15.20;;;;;;;;;;5066335;28;24426;-51
2022/03/02 06:57:02;;;;;;;18.70;15.10;;;;;;;;;;5065965;28;24834;-51
2022/03/02 06:59:37;;;;;;;17.67;14.80;;;;;;;;;;5064751;28;24785;-51
2022/03/02 07:02:03;;;;;;;20.38;16.65;;;;;;;;;;5066777;28;24426;-51
2022/03/02 07:04:30;;;;;;;18.93;15.67;;;;;;;;;;5065584;28;24717;-52
2022/03/02 07:06:56;;;;;;;17.50;15.50;;;;;;;;;;5066343;28;24414;-51
2022/03/02 07:09:21;;;;;;;21.50;16.70;;;;;;;;;;5065384;28;24483;-52
2022/03/02 07:11:47;;;;;;;18.17;15.68;;;;;;;;;;5065240;28;24445;-50
2022/03/02 07:14:15;;;;;;;21.25;15.88;;;;;;;;;;5064329;28;24465;-51
2022/03/02 07:16:41;;;;;;;21.83;15.60;;;;;;;;;;5064797;28;24469;-52
2022/03/02 07:19:06;;;;;;;19.58;16.42;;;;;;;;;;5059880;28;24447;-51
2022/03/02 07:21:33;;;;;;;18.60;16.38;;;;;;;;;;5065607;28;24464;-51
2022/03/02 07:24:02;;;;;;;19.85;16.02;;;;;;;;;;5064709;28;24492;-51
2022/03/02 07:26:28;;;;;;;19.80;16.17;;;;;;;;;;5065303;28;24442;-50
2022/03/02 07:28:54;;;;;;;20.77;16.13;;;;;;;;;;5060583;28;24471;-51
2022/03/02 07:31:21;;;;;;;18.48;15.93;;;;;;;;;;5061169;28;24435;-51
2022/03/02 07:33:47;;;;;;;19.00;16.40;;;;;;;;;;5066416;28;24948;-51
2022/03/02 07:36:12;;;;;;;18.73;16.73;;;;;;;;;;5064465;28;24441;-50
2022/03/02 07:38:37;;;;;;;20.87;16.47;;;;;;;;;;5064264;28;24501;-50
2022/03/02 07:41:04;;;;;;;20.55;16.30;;;;;;;;;;5066389;28;24443;-50
2022/03/02 07:43:30;;;;;;;18.17;16.27;;;;;;;;;;5066331;28;24825;-51
2022/03/02 07:45:55;;;;;;;21.85;16.23;;;;;;;;;;5064813;28;24427;-50
2022/03/02 07:48:20;;;;;;;21.30;16.35;;;;;;;;;;5065520;28;24443;-50
2022/03/02 07:50:46;;;;;;;19.30;17.20;;;;;;;;;;5066576;28;24912;-51
2022/03/02 07:53:15;;;;;;;19.33;16.10;;;;;;;;;;5064768;28;24387;-51
2022/03/02 07:55:42;;;;;;;20.85;17.00;;;;;;;;;;5066106;28;24415;-51
2022/03/02 07:58:07;;;;;;;19.10;17.10;;;;;;;;;;5065964;28;24406;-51
2022/03/02 08:00:32;;;;;;;17.47;15.67;;;;;;;;;;5066232;28;24419;-51
2022/03/02 08:02:58;;;;;;;20.43;16.53;;;;;;;;;;5066229;28;25051;-51
2022/03/02 08:05:24;;;;;;;21.08;17.98;;;;;;;;;;5064158;28;24418;-51
2022/03/02 08:07:49;;;;;;;22.93;18.53;;;;;;;;;;5066009;28;24963;-51
2022/03/02 08:10:15;;;;;;;20.77;17.73;;;;;;;;;;5064516;28;24991;-50
2022/03/02 08:12:41;;;;;;;22.27;17.65;;;;;;;;;;5066089;28;24532;-50
2022/03/02 08:15:06;;;;;;;21.70;18.83;;;;;;;;;;5064073;28;25015;-50
2022/03/02 08:17:32;;;;;;;21.33;19.03;;;;;;;;;;5062626;28;24411;-51
2022/03/02 08:19:57;;;;;;;21.73;18.20;;;;;;;;;;5066073;28;24442;-50
2022/03/02 08:22:23;;;;;;;24.23;18.93;;;;;;;;;;5065849;28;25302;-51
2022/03/02 08:24:56;;;;;;;23.00;17.50;;;;;;;;;;5062483;28;24387;-51
2022/03/02 08:27:22;;;;;;;22.48;17.95;;;;;;;;;;5065334;28;24964;-50
2022/03/02 08:29:53;;;;;;;22.77;17.80;;;;;;;;;;5064300;28;24394;-51
2022/03/02 08:32:19;;;;;;;23.00;18.00;;;;;;;;;;5069349;28;24974;-51
2022/03/02 08:34:44;;;;;;;24.10;18.47;;;;;;;;;;5070229;28;24964;-51
2022/03/02 08:37:09;;;;;;;22.80;18.40;;;;;;;;;;5069933;28;24494;-51
2022/03/02 08:39:34;;;;;;;23.23;18.60;;;;;;;;;;5068352;28;24549;-51
2022/03/02 08:41:59;;;;;;;22.35;18.13;;;;;;;;;;5069626;28;24529;-50
2022/03/02 08:44:25;;;;;;;26.67;19.77;;;;;;;;;;5069238;28;24415;-51
2022/03/02 08:46:50;;;;;;;24.70;18.37;;;;;;;;;;5068193;28;24411;-51
2022/03/02 08:49:16;;;;;;;22.27;18.50;;;;;;;;;;5069750;28;24411;-51
2022/03/02 08:51:41;;;;;;;22.77;18.80;;;;;;;;;;5069938;28;24406;-51
2022/03/02 08:54:08;;;;;;;21.53;19.23;;;;;;;;;;5069774;28;24409;-51
2022/03/02 08:56:37;;;;;;;22.33;18.75;;;;;;;;;;5067686;28;24526;-50
2022/03/02 08:59:03;;;;;;;21.95;19.55;;;;;;;;;;5069464;28;24405;-50
2022/03/02 09:01:29;;;;;;;23.42;19.88;;;;;;;;;;5067949;28;24474;-51
2022/03/02 09:03:57;;;;;;;22.23;19.30;;;;;;;;;;5067711;28;25217;-50
2022/03/02 09:06:24;;;;;;;23.55;19.30;;;;;;;;;;5069251;28;24423;-51
2022/03/02 09:08:49;;;;;;;20.13;16.98;;;;;;;;;;5067130;28;25007;-50
2022/03/02 09:11:15;;;;;;;22.20;18.40;;;;;;;;;;5069550;28;24419;-50
2022/03/02 09:13:40;;;;;;;24.23;19.00;;;;;;;;;;5067554;28;24445;-50
2022/03/02 09:16:06;;;;;;;20.75;17.70;;;;;;;;;;5069263;28;24383;-50
2022/03/02 09:18:31;;;;;;;19.33;16.45;;;;;;;;;;5067058;28;24844;-51
2022/03/02 09:20:59;;;;;;;20.50;16.90;;;;;;;;;;5067998;28;24431;-51
2022/03/02 09:23:27;;;;;;;22.85;17.98;;;;;;;;;;5068885;28;24406;-51
2022/03/02 09:25:53;;;;;;;18.70;15.60;;;;;;;;;;5067639;28;24390;-51
2022/03/02 09:28:20;;;;;;;20.52;16.88;;;;;;;;;;5068781;28;24414;-51
2022/03/02 09:30:45;;;;;;;18.92;16.15;;;;;;;;;;5068761;28;24418;-51
2022/03/02 09:33:12;;;;;;;19.10;16.53;;;;;;;;;;5067216;28;24398;-50
2022/03/02 09:35:38;;;;;;;22.30;17.70;;;;;;;;;;5068947;28;24375;-51
2022/03/02 09:38:03;;;;;;;20.58;16.83;;;;;;;;;;5068791;28;24806;-51
2022/03/02 09:40:30;;;;;;;21.10;17.08;;;;;;;;;;5068129;28;24450;-50
2022/03/02 09:42:55;;;;;;;17.95;15.82;;;;;;;;;;5065966;28;24391;-51
2022/03/02 09:45:20;;;;;;;16.98;15.18;;;;;;;;;;5068760;28;24409;-50
2022/03/02 09:47:49;;;;;;;18.87;16.07;;;;;;;;;;5068923;28;25188;-51
2022/03/02 09:50:15;;;;;;;18.63;16.63;;;;;;;;;;5067141;28;24413;-51
2022/03/02 09:52:41;;;;;;;19.13;16.77;;;;;;;;;;5068486;28;24968;-50
2022/03/02 09:55:10;;;;;;;21.10;16.23;;;;;;;;;;5068629;28;24402;-51
2022/03/02 09:57:40;;;;;;;20.05;16.30;;;;;;;;;;5068445;28;24425;-52
2022/03/02 10:00:05;;;;;;;22.33;18.17;;;;;;;;;;5068725;28;24448;-50
2022/03/02 10:02:37;;;;;;;18.50;16.13;;;;;;;;;;5066560;28;24861;-50
2022/03/02 10:05:06;;;;;;;18.60;16.42;;;;;;;;;;5066730;28;24433;-50
2022/03/02 10:07:33;;;;;;;17.30;15.50;;;;;;;;;;5066672;28;24409;-50
2022/03/02 10:10:04;;;;;;;18.70;15.70;;;;;;;;;;5068233;28;24451;-50
2022/03/02 10:12:30;;;;;;;20.02;15.50;;;;;;;;;;5068006;28;24418;-51
2022/03/02 10:14:55;;;;;;;18.88;15.80;;;;;;;;;;5067050;28;24475;-51
2022/03/02 10:17:21;;;;;;;19.03;15.83;;;;;;;;;;5068359;28;25329;-50
2022/03/02 10:19:52;;;;;;;20.40;15.40;;;;;;;;;;5065971;28;24940;-51
2022/03/02 10:22:24;;;;;;;17.27;14.90;;;;;;;;;;5067439;28;24418;-50
2022/03/02 10:24:51;;;;;;;17.35;15.43;;;;;;;;;;5066574;28;24390;-51
2022/03/02 10:27:40;;;;;;;17.50;15.70;;;;;;;;;;5068391;28;24429;-51
2022/03/02 10:30:05;;;;;;;17.98;15.77;;;;;;;;;;5065949;28;24395;-51
2022/03/02 10:32:32;;;;;;;17.87;15.40;;;;;;;;;;5067254;28;24512;-51
2022/03/02 10:35:01;;;;;;;17.65;14.95;;;;;;;;;;5067789;28;24390;-51
2022/03/02 10:37:31;;;;;;;16.30;14.60;;;;;;;;;;5066078;28;24465;-50
2022/03/02 10:40:05;;;;;;;18.02;15.07;;;;;;;;;;5065401;28;24673;-52
2022/03/02 10:42:36;;;;;;;16.25;14.35;;;;;;;;;;5067369;28;24442;-50
2022/03/02 10:45:06;;;;;;;17.20;15.40;;;;;;;;;;5067510;28;24448;-50
2022/03/02 10:47:32;;;;;;;18.60;16.45;;;;;;;;;;5067685;28;24475;-50
2022/03/02 10:49:59;;;;;;;18.87;15.80;;;;;;;;;;5065860;28;24482;-50
2022/03/02 10:52:25;;;;;;;18.33;14.85;;;;;;;;;;5067361;28;24402;-52
2022/03/02 10:54:52;;;;;;;17.93;14.90;;;;;;;;;;5066906;28;24445;-51
2022/03/02 10:57:18;;;;;;;17.38;15.57;;;;;;;;;;5067187;28;24985;-51
2022/03/02 10:59:44;;;;;;;17.03;15.10;;;;;;;;;;5063625;28;24568;-51
2022/03/02 11:02:09;;;;;;;18.00;15.77;;;;;;;;;;5067547;28;24729;-50
2022/03/02 11:04:36;;;;;;;15.03;13.43;;;;;;;;;;5049088;28;24909;-51
2022/03/02 11:07:02;;;;;;;15.50;13.77;;;;;;;;;;5067244;28;24402;-51
2022/03/02 11:09:33;;;;;;;17.70;14.40;;;;;;;;;;5067120;28;24403;-50
2022/03/02 11:11:58;;;;;;;19.50;15.57;;;;;;;;;;5063230;28;24952;-50
2022/03/02 11:14:23;;;;;;;16.63;14.47;;;;;;;;;;5066373;28;24426;-50
2022/03/02 11:16:50;;;;;;;16.87;14.50;;;;;;;;;;5067072;28;24460;-50
2022/03/02 11:19:15;;;;;;;14.85;13.13;;;;;;;;;;5065166;28;24851;-50
2022/03/02 11:21:41;;;;;;;15.50;13.65;;;;;;;;;;5066997;28;24391;-50
2022/03/02 11:24:08;;;;;;;15.77;13.30;;;;;;;;;;5067057;28;24959;-51
2022/03/02 11:26:38;;;;;;;15.38;13.70;;;;;;;;;;5066198;28;25057;-51
2022/03/02 11:29:10;;;;;;;16.05;13.52;;;;;;;;;;5065004;28;24397;-49
2022/03/02 11:31:40;;;;;;;13.80;12.40;;;;;;;;;;5066983;28;24814;-50
2022/03/02 11:34:13;;;;;;;16.10;12.32;;;;;;;;;;5065224;28;24802;-49
2022/03/02 11:36:39;;;;;;;15.88;13.02;;;;;;;;;;5064794;28;24718;-51
2022/03/02 11:39:06;;;;;;;15.80;14.02;;;;;;;;;;5066560;28;24395;-51
2022/03/02 11:41:33;;;;;;;15.07;13.02;;;;;;;;;;5064501;28;24524;-50
2022/03/02 11:43:58;;;;;;;16.13;14.43;;;;;;;;;;5066375;28;24464;-51
2022/03/02 11:46:23;;;;;;;16.33;14.63;;;;;;;;;;5066195;28;24474;-51
2022/03/02 11:48:51;;;;;;;15.05;13.45;;;;;;;;;;5064679;28;24401;-51
2022/03/02 11:51:21;;;;;;;15.60;14.00;;;;;;;;;;5064638;28;24406;-51
2022/03/02 11:53:47;;;;;;;18.73;13.93;;;;;;;;;;5066089;28;24414;-51
2022/03/02 11:56:14;;;;;;;16.20;13.32;;;;;;;;;;5064649;28;24399;-51
2022/03/02 11:58:59;;;;;;;16.57;13.93;;;;;;;;;;5065055;28;24428;-51
2022/03/02 12:01:25;;;;;;;15.77;13.60;;;;;;;;;;5065600;28;24520;-50
2022/03/02 12:03:57;;;;;;;15.05;13.48;;;;;;;;;;5064301;28;25312;-50
2022/03/02 12:06:22;;;;;;;13.05;11.75;;;;;;;;;;5065287;28;24399;-51
2022/03/02 12:08:51;;;;;;;12.30;10.70;;;;;;;;;;5065622;28;24429;-50
2022/03/02 12:11:21;;;;;;;11.63;10.43;;;;;;;;;;5064507;28;24753;-51
2022/03/02 12:14:04;;;;;;;11.40;10.10;;;;;;;;;;5066004;28;24549;-50
2022/03/02 12:16:36;;;;;;;10.80;9.70;;;;;;;;;;5065995;28;24429;-53
2022/03/02 12:19:01;;;;;;;8.20;7.28;;;;;;;;;;5065480;28;24487;-50
2022/03/02 12:21:26;;;;;;;7.63;6.83;;;;;;;;;;5066336;28;24733;-51
2022/03/02 12:23:52;;;;;;;9.60;8.20;;;;;;;;;;5064158;28;24934;-50
2022/03/02 12:26:17;;;;;;;10.30;9.17;;;;;;;;;;5065766;28;24407;-50
2022/03/02 12:28:53;;;;;;;9.43;8.25;;;;;;;;;;5065468;28;24506;-50
2022/03/02 12:31:27;;;;;;;8.63;7.72;;;;;;;;;;5064160;28;24875;-50
2022/03/02 12:33:58;;;;;;;7.00;6.40;;;;;;;;;;5065973;28;24411;-51
2022/03/02 12:36:24;;;;;;;9.40;8.40;;;;;;;;;;5065851;28;24476;-50
2022/03/02 12:38:49;;;;;;;8.43;7.60;;;;;;;;;;5061678;28;24737;-51
2022/03/02 12:41:15;;;;;;;11.83;10.63;;;;;;;;;;5065528;28;25005;-51
2022/03/02 12:43:40;;;;;;;14.63;12.77;;;;;;;;;;5065409;28;24403;-51
2022/03/02 12:46:05;;;;;;;13.20;11.80;;;;;;;;;;5065310;28;24754;-50
2022/03/02 12:48:31;;;;;;;13.90;12.50;;;;;;;;;;5064646;28;24466;-51
2022/03/02 12:50:56;;;;;;;14.80;12.60;;;;;;;;;;5066055;28;24966;-51
2022/03/02 12:53:21;;;;;;;13.88;11.38;;;;;;;;;;5064434;28;24402;-51
2022/03/02 12:55:47;;;;;;;12.63;11.20;;;;;;;;;;5063495;28;24430;-50
2022/03/02 12:58:12;;;;;;;13.80;11.57;;;;;;;;;;5065419;28;24960;-50
2022/03/02 13:00:38;;;;;;;11.43;10.23;;;;;;;;;;5063785;28;24423;-51
2022/03/02 13:03:06;;;;;;;13.60;11.00;;;;;;;;;;5065797;28;24391;-50
2022/03/02 13:05:37;;;;;;;12.30;10.50;;;;;;;;;;5065782;28;24543;-51
2022/03/02 13:08:15;;;;;;;11.60;10.40;;;;;;;;;;5063291;28;24743;-50
2022/03/02 13:10:44;;;;;;;11.90;10.70;;;;;;;;;;5065144;28;24390;-50
2022/03/02 13:13:09;;;;;;;13.80;11.90;;;;;;;;;;5063803;28;25027;-50
2022/03/02 13:15:36;;;;;;;14.67;12.33;;;;;;;;;;5063533;28;24622;-50
2022/03/02 13:18:08;;;;;;;11.75;10.55;;;;;;;;;;5068342;28;24939;-51
2022/03/02 13:20:39;;;;;;;12.80;10.90;;;;;;;;;;5067235;28;24419;-51
2022/03/02 13:23:22;;;;;;;12.20;10.90;;;;;;;;;;5068998;28;24526;-51
2022/03/02 13:26:00;;;;;;;12.88;11.30;;;;;;;;;;5067228;28;24429;-51
2022/03/02 13:28:26;;;;;;;13.68;11.45;;;;;;;;;;5067527;28;24375;-51
2022/03/02 13:31:08;;;;;;;13.23;11.25;;;;;;;;;;5068941;28;24394;-50
2022/03/02 13:33:55;;;;;;;12.98;11.10;;;;;;;;;;5068651;28;24398;-51
2022/03/02 13:36:38;;;;;;;13.90;11.80;;;;;;;;;;5066920;28;24429;-51
2022/03/02 13:39:09;;;;;;;16.42;12.38;;;;;;;;;;5067014;28;24533;-50
2022/03/02 13:41:50;;;;;;;12.10;10.90;;;;;;;;;;5068348;28;24434;-50
2022/03/02 13:44:31;;;;;;;14.23;12.00;;;;;;;;;;5068670;28;24379;-50
2022/03/02 13:47:08;;;;;;;12.77;11.02;;;;;;;;;;5066587;28;25612;-50
2022/03/02 13:49:53;;;;;;;13.97;11.40;;;;;;;;;;5068703;28;25076;-50
2022/03/02 13:52:41;;;;;;;14.18;11.25;;;;;;;;;;5066591;28;24506;-51
2022/03/02 13:55:09;;;;;;;13.18;11.20;;;;;;;;;;5068235;28;24429;-51
2022/03/02 13:57:34;;;;;;;12.85;11.18;;;;;;;;;;5068216;28;24403;-51
2022/03/02 14:00:18;;;;;;;11.65;10.38;;;;;;;;;;5068291;28;24535;-51
2022/03/02 14:02:47;;;;;;;11.73;10.52;;;;;;;;;;5066367;28;24456;-51
2022/03/02 14:05:12;;;;;;;11.15;9.95;;;;;;;;;;5067990;28;24620;-50
2022/03/02 14:07:38;;;;;;;11.77;10.03;;;;;;;;;;5068279;28;24507;-50
2022/03/02 14:10:04;;;;;;;10.77;9.67;;;;;;;;;;5066457;28;25141;-51
2022/03/02 14:12:29;;;;;;;9.52;7.57;;;;;;;;;;5068374;28;24394;-51
2022/03/02 14:15:07;;;;;;;7.60;6.60;;;;;;;;;;5068040;28;24405;-51
2022/03/02 14:17:32;;;;;;;7.60;6.90;;;;;;;;;;5067738;28;25301;-51